Quay, New Mexico
Current Conditions -  °F | °C
As of 9:53 PM on Saturday 25 Oct 2014 (Local Time) from KTCC Reporting Station
Clear Clear  
Wind Chill: 67°   Ceiling: Unl
Heat Index: 67°   Visibility: 10mi
Dew Point: 42°   Wind: 15mph
Humidity: 40%   Direction: 210°SSW
Pressure: 30.05"   Gusts: NA
Location:  34.93°N, 103.76°W
Report Text: KTCC 260353Z AUTO 21013KT 10SM CLR 19/06 A3005 RMK AO2 SLP128 T01940056
Loading
Personal Weather Stations






























Interactive Weather Map
Tropical Storm Tracking
New forecast layout! Learn more

10-Day Weather Forecast

Advertisements
Track Severe Weather on mobile